Portada
METAR-TAF:

METAR-TAF

Aeropuertos :

Takamatsu, Japón

latitud: 34-13N, longitud: 134-01E, altitud: 185 m

Observación

El informe se hizo hace 36 minutos, a las 04:00 UTC
Viento 5 kt del noroeste, variando entre oeste y norte-noreste
Temperatura 11°C
Humedad 50%
Presión 1029 hPa
Visibilidad 10 km o más
Escasas nubes a una altura de 2500 ft

METAR: RJOT 200400Z 32005KT 270V020 9999 FEW025 11/01 Q1029

Hora: 13:36 (04:36 UTC)

Pronóstico

El informe se hizo hace 5 horas y 30 minutos, a las 23:06 UTC
Pronóstico válido del 20 a las 00 UTC al 21 a las 06 UTC
Viento 5 kt del oeste-noroeste
Visibilidad 10 km o más
Escasas nubes a una altura de 3000 ft
Evolucionando progresivamente
del 20 a las 09 UTC al 20 a las 11 UTC
Viento 6 kt del sur-sureste

TAF: RJOT 192306Z 2000/2106 29005KT 9999 FEW030 BECMG 2009/2011 15006KT

Observaciones y pronósticos meteorológicos de más de 4000 aeropuertos (mensajes METAR y TAF).

Los puntos amarillos y rojos representan las estaciones disponibles.

Ponga el ratón en el punto deseado para ver el nombre de la estación.

Haga clic para ver las observaciones y los pronósticos meteorológicos.

Para cambiar el mapa : haga clic en los botones verdes con una cruz de color negro para hacer un zoom, en el botón verde con un guión para alejar o en las flechas verdes para mapas adyacentes.


METAR-TAF: